Time;durP1;ratioP1;P1;durP2;ratioP2;P2;SDS_P1;SDS_P2;PMS_P1;PMS_P2;Temp;Humidity;BMP_temperature;BMP_pressure;BME280_temperature;BME280_humidity;BME280_pressure;Samples;Min_cycle;Max_cycle;Signal;HPM_P1;HPM_P2
2022/10/29 00:00:28;;;;;;;;;14.25;12.75;;;;;21.12;73.57;101661.19;5055800;28;45425;-66
2022/10/29 00:02:53;;;;;;;;;14.00;12.50;;;;;21.11;73.20;101645.91;5038610;28;46193;-68
2022/10/29 00:05:18;;;;;;;;;13.75;12.25;;;;;21.12;73.18;101641.34;5055354;28;45385;-66
2022/10/29 00:07:44;;;;;;;;;11.25;10.25;;;;;21.12;73.24;101641.34;5046078;28;45496;-66
2022/10/29 00:10:09;;;;;;;;;10.75;9.75;;;;;21.13;73.74;101635.75;5048364;28;45439;-66
2022/10/29 00:12:35;;;;;;;;;10.75;10.00;;;;;21.14;73.55;101636.63;5038554;28;45790;-66
2022/10/29 00:15:01;;;;;;;;;10.75;10.75;;;;;21.14;73.63;101629.34;5041360;28;45639;-68
2022/10/29 00:17:26;;;;;;;;;11.00;9.25;;;;;21.10;74.01;101608.06;5055391;28;45243;-66
2022/10/29 00:19:51;;;;;;;;;18.00;11.00;;;;;21.14;73.50;101609.50;5044366;28;45334;-66
2022/10/29 00:22:17;;;;;;;;;9.50;9.50;;;;;21.14;73.74;101623.91;5048879;28;46206;-66
2022/10/29 00:24:42;;;;;;;;;9.25;8.75;;;;;21.11;74.34;101612.50;5052319;28;45337;-66
2022/10/29 00:27:08;;;;;;;;;13.00;12.00;;;;;21.13;74.55;101605.91;5039537;28;45473;-66
2022/10/29 00:29:33;;;;;;;;;14.75;10.25;;;;;21.10;73.91;101603.50;5043272;28;45390;-66
2022/10/29 00:31:58;;;;;;;;;12.75;11.50;;;;;21.14;74.00;101602.22;5035044;28;45282;-67
2022/10/29 00:34:23;;;;;;;;;8.75;8.00;;;;;20.77;73.73;101543.19;5045708;28;46685;-66
2022/10/29 00:36:49;;;;;;;;;10.25;10.25;;;;;21.13;73.19;101607.78;5051652;28;46308;-67
2022/10/29 00:39:15;;;;;;;;;5.75;5.00;;;;;21.11;73.02;101607.09;5040291;28;45409;-66
2022/10/29 00:41:41;;;;;;;;;12.50;10.50;;;;;21.11;73.20;101591.66;5054907;28;46217;-66
2022/10/29 00:44:21;;;;;;;;;12.00;10.50;;;;;21.12;72.96;101600.63;5048918;28;45439;-67
2022/10/29 00:47:01;;;;;;;;;11.00;11.00;;;;;21.15;73.23;101584.09;5051251;28;45277;-67
2022/10/29 00:49:27;;;;;;;;;14.25;10.75;;;;;21.15;74.14;101571.38;5037417;28;45446;-66
2022/10/29 00:51:54;;;;;;;;;14.00;11.00;;;;;20.88;74.39;101535.91;5054421;28;47238;-66
2022/10/29 00:54:19;;;;;;;;;14.25;13.75;;;;;20.80;74.53;101529.34;5048526;28;45447;-66
2022/10/29 00:56:51;;;;;;;;;10.50;10.50;;;;;21.07;75.20;101587.50;5054765;28;45392;-66
2022/10/29 00:59:17;;;;;;;;;14.00;14.00;;;;;20.83;75.04;101553.47;5055008;28;45405;-67
2022/10/29 01:01:45;;;;;;;;;11.00;11.00;;;;;21.00;75.28;101579.06;5044258;28;45493;-67
2022/10/29 01:04:11;;;;;;;;;10.00;9.25;;;;;20.74;74.84;101529.91;5048092;28;45342;-66
2022/10/29 01:06:37;;;;;;;;;10.50;10.50;;;;;20.84;75.13;101533.50;5038004;28;45480;-66
2022/10/29 01:09:03;;;;;;;;;12.00;8.75;;;;;20.68;74.68;101495.19;5050212;28;45297;-67
2022/10/29 01:11:57;;;;;;;;;10.25;9.75;;;;;21.00;75.06;101529.38;5041809;28;45332;-67
2022/10/29 01:14:37;;;;;;;;;13.50;10.25;;;;;20.96;74.71;101517.97;5039772;28;45378;-67
2022/10/29 01:17:02;;;;;;;;;7.50;7.50;;;;;20.94;74.90;101521.81;5036595;28;45438;-65
2022/10/29 01:20:00;;;;;;;;;14.50;13.00;;;;;20.93;75.43;101539.97;5046558;28;45472;-65
2022/10/29 01:22:30;;;;;;;;;12.75;11.00;;;;;20.91;75.10;101525.66;5049551;28;46231;-66
2022/10/29 01:25:26;;;;;;;;;11.25;9.25;;;;;20.86;74.93;101519.81;5051565;28;45360;-65
2022/10/29 01:27:55;;;;;;;;;13.00;12.00;;;;;20.88;75.31;101517.81;5043637;28;45393;-66
2022/10/29 01:30:30;;;;;;;;;12.75;12.75;;;;;20.85;75.10;101518.06;5052125;28;45352;-67
2022/10/29 01:33:22;;;;;;;;;15.50;13.25;;;;;20.79;75.11;101535.75;5038667;28;45410;-66
2022/10/29 01:36:28;;;;;;;;;14.75;13.50;;;;;20.73;74.25;101527.31;5046526;28;45508;-66
2022/10/29 01:39:23;;;;;;;;;10.50;10.50;;;;;20.43;74.40;101491.13;4991352;28;45558;-67
2022/10/29 01:42:05;;;;;;;;;10.50;10.50;;;;;20.72;74.67;101514.75;4983844;28;45480;-67
2022/10/29 01:44:52;;;;;;;;;11.00;7.50;;;;;20.68;74.70;101508.75;4983873;28;45774;-67
2022/10/29 01:47:19;;;;;;;;;11.75;11.25;;;;;20.71;74.91;101516.63;4982080;28;45506;-67
2022/10/29 01:49:52;;;;;;;;;13.75;12.75;;;;;20.65;74.80;101501.75;4981060;28;45692;-67
2022/10/29 01:52:20;;;;;;;;;11.75;9.75;;;;;20.72;74.72;101512.94;4991385;28;45490;-66
2022/10/29 01:54:46;;;;;;;;;13.75;12.25;;;;;20.71;73.55;101494.94;4990618;28;45424;-66
2022/10/29 01:57:29;;;;;;;;;10.25;7.00;;;;;20.66;73.46;101481.78;4989773;28;45461;-67
2022/10/29 02:00:02;;;;;;;;;14.25;13.50;;;;;20.67;73.44;101488.06;4980012;28;45545;-67
2022/10/29 02:02:39;;;;;;;;;12.25;12.25;;;;;20.66;73.49;101478.19;4986275;28;45428;-67
2022/10/29 02:05:21;;;;;;;;;11.25;11.25;;;;;20.67;73.53;101477.22;4975149;28;45568;-67
2022/10/29 02:07:53;;;;;;;;;12.50;10.75;;;;;20.49;73.78;101448.06;4990879;28;45535;-67
2022/10/29 02:10:25;;;;;;;;;13.00;10.75;;;;;20.63;72.77;101465.78;4987236;28;45516;-67
2022/10/29 02:12:55;;;;;;;;;15.25;11.00;;;;;20.63;72.86;101460.34;4986863;28;45398;-67
2022/10/29 02:15:24;;;;;;;;;6.25;6.25;;;;;20.43;72.73;101420.66;5036481;28;46263;-67
2022/10/29 02:17:50;;;;;;;;;13.75;12.50;;;;;20.46;72.65;101423.09;5054028;28;45479;-67
2022/10/29 02:20:16;;;;;;;;;11.00;11.00;;;;;20.60;72.89;101447.09;5072062;28;45474;-66
2022/10/29 02:22:41;;;;;;;;;12.75;11.25;;;;;20.61;73.03;101451.53;5039915;28;45403;-67
2022/10/29 02:25:08;;;;;;;;;13.75;11.50;;;;;20.63;73.50;101454.94;5051687;28;46039;-67
2022/10/29 02:27:33;;;;;;;;;13.50;12.25;;;;;20.62;73.20;101455.09;5044526;28;45345;-67
2022/10/29 02:29:59;;;;;;;;;11.50;10.75;;;;;20.65;73.37;101454.81;5044694;28;45392;-67
2022/10/29 02:32:24;;;;;;;;;12.25;12.25;;;;;19.86;72.61;101318.31;5051708;28;45455;-67
2022/10/29 02:34:50;;;;;;;;;10.75;10.75;;;;;20.68;73.00;101440.97;5039173;28;45429;-67
2022/10/29 02:37:15;;;;;;;;;14.75;12.25;;;;;20.67;72.40;101445.53;5050619;28;45345;-66
2022/10/29 02:39:40;;;;;;;;;11.25;10.25;;;;;20.66;72.35;101432.13;5045242;28;45432;-67
2022/10/29 02:42:06;;;;;;;;;12.50;12.25;;;;;20.56;72.15;101431.28;5039992;28;45476;-67
2022/10/29 02:44:31;;;;;;;;;10.50;9.75;;;;;20.64;71.95;101439.56;5045172;28;47366;-66
2022/10/29 02:46:56;;;;;;;;;11.00;11.00;;;;;20.63;72.38;101440.53;5055787;28;45604;-67
2022/10/29 02:49:22;;;;;;;;;13.25;13.00;;;;;20.62;72.49;101425.28;5056043;28;45376;-67
2022/10/29 02:51:47;;;;;;;;;12.25;11.00;;;;;20.40;72.34;101393.88;5055178;28;45873;-67
2022/10/29 02:54:13;;;;;;;;;9.00;9.00;;;;;20.64;71.75;101426.00;5042618;28;46367;-67
2022/10/29 02:56:38;;;;;;;;;11.25;11.00;;;;;20.62;71.83;101418.00;5052469;28;45475;-67
2022/10/29 02:59:03;;;;;;;;;13.00;11.00;;;;;20.62;71.83;101425.28;5052216;28;45424;-67
2022/10/29 03:01:29;;;;;;;;;12.25;12.25;;;;;20.61;72.05;101419.00;5053597;28;45438;-67
2022/10/29 03:03:54;;;;;;;;;12.00;10.00;;;;;20.46;71.72;101401.41;5063512;28;47018;-67
2022/10/29 03:06:20;;;;;;;;;11.75;11.75;;;;;20.58;72.19;101407.56;5055302;28;45443;-67
2022/10/29 03:08:46;;;;;;;;;12.25;12.00;;;;;20.44;71.49;101388.00;5056933;28;45409;-67
2022/10/29 03:11:12;;;;;;;;;12.00;9.50;;;;;20.20;71.45;101345.03;5048521;28;45323;-67
2022/10/29 03:13:38;;;;;;;;;13.25;10.50;;;;;20.59;71.31;101406.59;5050899;28;45328;-67
2022/10/29 03:16:04;;;;;;;;;11.75;10.75;;;;;20.56;71.28;101405.00;5054314;28;45546;-66
2022/10/29 03:18:29;;;;;;;;;12.50;11.25;;;;;20.57;71.08;101408.56;5049763;28;45434;-67
2022/10/29 03:20:54;;;;;;;;;11.50;11.50;;;;;20.49;70.88;101393.88;5040457;28;45308;-67
2022/10/29 03:23:21;;;;;;;;;12.75;9.50;;;;;20.55;70.98;101414.13;5047617;28;47266;-67
2022/10/29 03:25:51;;;;;;;;;11.75;10.50;;;;;20.56;70.40;101418.56;5046023;28;45528;-67
2022/10/29 03:28:16;;;;;;;;;10.00;10.00;;;;;20.54;70.73;101407.00;5036439;28;45489;-66
2022/10/29 03:30:42;;;;;;;;;11.00;11.00;;;;;20.32;70.36;101376.44;5035394;28;45745;-66
2022/10/29 03:33:07;;;;;;;;;10.25;10.25;;;;;20.54;70.37;101403.44;5036218;28;45928;-66
2022/10/29 03:35:32;;;;;;;;;8.75;8.75;;;;;20.49;70.29;101404.72;5036468;28;45274;-66
2022/10/29 03:37:58;;;;;;;;;10.50;9.25;;;;;20.47;70.83;101412.16;5036542;28;45359;-66
2022/10/29 03:40:23;;;;;;;;;13.25;11.50;;;;;20.50;70.68;101413.69;5036414;28;45453;-66
2022/10/29 03:42:48;;;;;;;;;11.50;10.75;;;;;20.50;70.81;101422.69;5036289;28;45389;-67
2022/10/29 03:45:14;;;;;;;;;9.00;9.00;;;;;20.50;70.71;101411.84;5036435;28;45340;-67
2022/10/29 03:47:39;;;;;;;;;8.50;8.50;;;;;20.52;71.14;101410.88;5052848;28;45333;-66
2022/10/29 03:50:05;;;;;;;;;11.00;11.00;;;;;20.51;70.27;101391.03;5056492;28;45466;-66
2022/10/29 03:52:30;;;;;;;;;9.75;8.50;;;;;20.47;70.33;101384.16;5056014;28;46168;-67
2022/10/29 03:54:56;;;;;;;;;9.75;9.25;;;;;20.44;70.33;101379.03;5056025;28;45385;-67
2022/10/29 03:57:21;;;;;;;;;7.25;6.00;;;;;20.44;70.35;101390.72;5054934;28;45825;-66
2022/10/29 03:59:47;;;;;;;;;10.25;7.50;;;;;20.21;70.77;101362.19;5052562;28;45636;-66
2022/10/29 04:02:12;;;;;;;;;9.75;9.75;;;;;20.45;71.06;101380.75;5057288;28;45871;-67
2022/10/29 04:04:38;;;;;;;;;9.50;8.00;;;;;20.16;69.97;101321.94;5056097;28;45333;-67
2022/10/29 04:07:04;;;;;;;;;9.00;8.75;;;;;20.40;70.14;101377.59;5055513;28;45465;-67
2022/10/29 04:09:29;;;;;;;;;9.00;8.50;;;;;20.43;70.73;101388.16;5055607;28;45453;-66
2022/10/29 04:11:54;;;;;;;;;9.25;9.00;;;;;20.41;70.37;101388.31;5056063;28;46284;-66
2022/10/29 04:14:20;;;;;;;;;9.50;7.75;;;;;20.28;70.51;101369.59;5054803;28;45538;-67
2022/10/29 04:16:45;;;;;;;;;10.50;8.75;;;;;20.44;70.14;101406.97;5053977;28;45394;-66
2022/10/29 04:19:11;;;;;;;;;8.75;8.75;;;;;20.44;70.33;101406.13;5055758;28;45286;-66
2022/10/29 04:21:36;;;;;;;;;10.25;9.25;;;;;20.33;69.64;101394.41;5055581;28;46222;-66
2022/10/29 04:24:01;;;;;;;;;11.00;9.25;;;;;20.39;70.10;101406.53;5036660;28;45379;-66
2022/10/29 04:26:27;;;;;;;;;8.75;8.75;;;;;20.27;70.14;101394.97;5053460;28;45648;-66
2022/10/29 04:28:52;;;;;;;;;8.50;8.50;;;;;20.34;70.09;101411.53;5055531;28;45349;-66
2022/10/29 04:31:18;;;;;;;;;9.75;9.25;;;;;20.36;69.87;101408.69;5054525;28;49014;-66
2022/10/29 04:33:43;;;;;;;;;14.75;13.25;;;;;20.37;69.66;101397.72;5054748;28;45310;-66
2022/10/29 04:36:09;;;;;;;;;12.00;10.75;;;;;20.37;69.64;101405.84;5053477;28;45325;-67
2022/10/29 04:38:35;;;;;;;;;5.00;5.00;;;;;20.35;69.58;101405.09;5054130;28;45328;-67
2022/10/29 04:41:01;;;;;;;;;12.25;11.25;;;;;20.33;69.52;101393.56;5053874;28;45558;-67
2022/10/29 04:43:27;;;;;;;;;11.50;10.25;;;;;20.33;69.67;101386.28;5054483;28;45645;-67
2022/10/29 04:45:54;;;;;;;;;9.75;8.25;;;;;20.35;69.74;101386.13;5053786;28;45411;-67
2022/10/29 04:48:20;;;;;;;;;14.25;12.00;;;;;20.19;69.52;101364.16;5054278;28;45364;-67
2022/10/29 04:50:46;;;;;;;;;8.50;8.00;;;;;20.04;69.47;101344.72;5053897;28;45791;-67
2022/10/29 04:53:11;;;;;;;;;12.75;11.25;;;;;19.99;69.54;101323.50;5054043;28;45397;-67
2022/10/29 04:55:38;;;;;;;;;10.75;10.75;;;;;20.32;69.66;101391.84;5053933;28;45338;-67
2022/10/29 04:58:10;;;;;;;;;14.75;13.50;;;;;20.32;69.61;101387.28;5054266;28;45536;-73
2022/10/29 05:00:36;;;;;;;;;8.50;8.50;;;;;20.34;69.47;101381.75;5054700;28;45429;-72
2022/10/29 05:03:01;;;;;;;;;14.00;13.25;;;;;20.11;68.95;101335.94;5054353;28;45354;-71
2022/10/29 05:05:27;;;;;;;;;10.25;9.75;;;;;20.32;68.70;101378.31;5054538;28;45492;-72
2022/10/29 05:07:57;;;;;;;;;9.75;7.75;;;;;20.30;68.81;101374.88;5055046;28;45469;-72
2022/10/29 05:10:25;;;;;;;;;8.25;8.25;;;;;20.24;69.75;101373.56;5055341;28;47274;-72
2022/10/29 05:13:02;;;;;;;;;10.00;10.00;;;;;20.27;69.50;101373.31;5054757;28;45381;-72
2022/10/29 05:15:28;;;;;;;;;8.75;6.75;;;;;20.28;69.70;101374.16;5054898;28;45311;-72
2022/10/29 05:17:55;;;;;;;;;10.25;8.75;;;;;19.86;69.72;101304.78;5055252;28;45315;-72
2022/10/29 05:20:21;;;;;;;;;9.50;9.50;;;;;20.15;69.74;101339.19;5054617;28;46505;-72
2022/10/29 05:22:47;;;;;;;;;8.75;8.75;;;;;20.23;69.19;101355.63;5054908;28;45445;-72
2022/10/29 05:25:13;;;;;;;;;12.75;11.25;;;;;20.20;69.26;101350.47;5055082;28;45398;-72
2022/10/29 05:27:38;;;;;;;;;11.00;11.00;;;;;19.82;69.82;101289.81;5055007;28;45279;-72
2022/10/29 05:30:04;;;;;;;;;11.25;10.50;;;;;20.15;70.02;101348.19;5055049;28;45365;-72
2022/10/29 05:32:30;;;;;;;;;9.25;8.25;;;;;20.13;69.71;101344.75;5055260;28;45434;-72
2022/10/29 05:34:55;;;;;;;;;11.50;10.25;;;;;20.06;69.57;101335.47;5055200;28;45310;-74
2022/10/29 05:37:24;;;;;;;;;0.50;0.00;;;;;20.01;69.52;101332.31;5055261;28;45407;-72
2022/10/29 05:39:50;;;;;;;;;10.50;10.50;;;;;20.11;69.96;101343.16;5054531;28;47259;-72
2022/10/29 05:42:15;;;;;;;;;10.00;10.00;;;;;20.11;69.63;101335.94;5054891;28;45564;-72
2022/10/29 05:44:41;;;;;;;;;9.25;9.25;;;;;19.86;68.81;101298.53;5053734;28;45408;-72
2022/10/29 05:47:06;;;;;;;;;10.75;9.00;;;;;20.08;69.42;101333.50;5053990;28;45603;-72
2022/10/29 05:49:31;;;;;;;;;16.75;11.50;;;;;20.06;69.24;101330.06;5058160;28;47565;-72
2022/10/29 05:51:57;;;;;;;;;4.75;4.75;;;;;19.99;69.01;101320.78;5059560;28;45387;-72
2022/10/29 05:54:22;;;;;;;;;10.50;9.25;;;;;19.98;69.11;101329.91;5058575;28;45392;-71
2022/10/29 05:56:48;;;;;;;;;8.50;8.50;;;;;19.80;69.03;101298.06;5058684;28;45436;-72
2022/10/29 05:59:13;;;;;;;;;16.75;13.50;;;;;20.02;69.00;101335.91;5058013;28;46600;-66
2022/10/29 06:01:38;;;;;;;;;10.25;9.75;;;;;20.00;69.06;101327.91;5056978;28;45450;-66
2022/10/29 06:04:03;;;;;;;;;13.75;12.00;;;;;20.02;68.81;101330.50;5058015;28;45443;-66
2022/10/29 06:06:30;;;;;;;;;12.25;10.25;;;;;19.78;69.14;101294.59;5057537;28;45434;-66
2022/10/29 06:08:55;;;;;;;;;8.00;8.00;;;;;20.03;68.64;101332.19;5057007;28;47144;-66
2022/10/29 06:11:20;;;;;;;;;10.75;10.00;;;;;20.00;68.76;101320.66;5072454;28;45492;-66
2022/10/29 06:13:46;;;;;;;;;13.25;11.00;;;;;20.01;68.80;101313.38;5055779;28;45353;-66
2022/10/29 06:16:11;;;;;;;;;9.50;7.75;;;;;20.01;68.94;101310.66;5057636;28;45409;-66
2022/10/29 06:18:36;;;;;;;;;11.50;11.25;;;;;19.99;68.88;101320.78;5057831;28;45373;-66
2022/10/29 06:21:02;;;;;;;;;12.75;11.00;;;;;20.00;69.42;101333.31;5056767;28;45278;-66
2022/10/29 06:23:27;;;;;;;;;14.25;13.75;;;;;19.60;69.93;101266.50;5057502;28;45338;-66
2022/10/29 06:25:53;;;;;;;;;9.75;9.75;;;;;19.99;69.55;101324.34;5056708;28;45554;-66
2022/10/29 06:28:18;;;;;;;;;10.00;9.50;;;;;19.98;70.01;101329.91;5057555;28;46026;-66
2022/10/29 06:30:49;;;;;;;;;11.75;11.00;;;;;19.93;69.43;101330.28;5057680;28;45285;-66
2022/10/29 06:33:15;;;;;;;;;9.25;9.25;;;;;19.95;69.76;101327.47;5058084;28;45358;-66
2022/10/29 06:35:41;;;;;;;;;9.25;8.00;;;;;19.96;69.91;101331.88;5057581;28;45408;-66
2022/10/29 06:38:06;;;;;;;;;8.25;8.25;;;;;19.93;69.35;101343.00;5057374;28;45444;-67
2022/10/29 06:40:31;;;;;;;;;13.50;10.00;;;;;19.89;68.81;101353.22;5057787;28;45454;-67
2022/10/29 06:42:58;;;;;;;;;11.00;10.00;;;;;19.88;69.27;101345.25;5057739;28;45608;-67
2022/10/29 06:45:24;;;;;;;;;14.00;11.75;;;;;19.89;68.95;101342.41;5056205;28;45284;-67
2022/10/29 06:47:49;;;;;;;;;10.50;8.75;;;;;19.91;69.63;101339.59;5056271;28;45590;-67
2022/10/29 06:50:14;;;;;;;;;11.25;10.75;;;;;19.64;70.02;101287.72;5057663;28;45441;-67
2022/10/29 06:52:40;;;;;;;;;9.25;8.25;;;;;19.77;69.05;101306.44;5059795;28;45141;-67
2022/10/29 06:55:06;;;;;;;;;13.00;12.75;;;;;19.92;69.57;101327.72;5059865;28;45299;-67
2022/10/29 06:57:31;;;;;;;;;12.00;7.25;;;;;19.92;69.51;101325.03;5055375;28;47500;-67
2022/10/29 06:59:57;;;;;;;;;13.25;8.50;;;;;19.91;69.55;101335.00;5060016;28;45400;-72
2022/10/29 07:02:22;;;;;;;;;9.75;8.75;;;;;19.59;70.07;101275.63;5057100;28;45403;-72
2022/10/29 07:04:48;;;;;;;;;11.50;10.50;;;;;19.94;69.70;101329.31;5056588;28;45563;-72
2022/10/29 07:07:13;;;;;;;;;11.25;10.00;;;;;19.83;69.44;101297.78;5057019;28;46027;-72
2022/10/29 07:09:39;;;;;;;;;8.00;8.00;;;;;19.98;69.07;101317.22;5056135;28;45485;-72
2022/10/29 07:12:05;;;;;;;;;12.75;11.75;;;;;19.49;68.81;101227.72;5057332;28;45489;-72
2022/10/29 07:14:31;;;;;;;;;10.50;10.50;;;;;19.72;69.20;101268.09;5056649;28;45378;-72
2022/10/29 07:16:56;;;;;;;;;13.00;11.00;;;;;20.04;68.51;101318.50;5057172;28;46118;-72
2022/10/29 07:19:22;;;;;;;;;14.00;10.75;;;;;20.06;68.51;101319.22;5057525;28;45309;-72
2022/10/29 07:21:47;;;;;;;;;14.75;13.00;;;;;20.09;68.40;101307.25;5057131;28;45934;-72
2022/10/29 07:24:12;;;;;;;;;17.00;10.50;;;;;20.09;68.60;101308.09;5056972;28;45382;-71
2022/10/29 07:26:38;;;;;;;;;10.00;10.00;;;;;20.10;68.70;101303.56;5056080;28;47411;-71
2022/10/29 07:29:03;;;;;;;;;11.25;9.00;;;;;20.10;68.49;101301.69;5056006;28;45358;-71
2022/10/29 07:31:30;;;;;;;;;13.00;12.25;;;;;19.95;68.74;101279.59;5038289;28;45560;-71
2022/10/29 07:33:56;;;;;;;;;11.50;9.50;;;;;20.17;67.99;101308.25;5035938;28;45505;-71
2022/10/29 07:36:21;;;;;;;;;12.00;12.00;;;;;20.21;68.46;101314.25;5050545;28;45802;-71
2022/10/29 07:38:47;;;;;;;;;14.75;11.00;;;;;20.22;67.82;101315.97;5054874;28;45306;-71
2022/10/29 07:41:12;;;;;;;;;13.50;12.25;;;;;20.25;68.67;101320.28;5056213;28;45484;-71
2022/10/29 07:43:38;;;;;;;;;10.75;9.75;;;;;20.29;68.28;101321.69;5056709;28;45416;-71
2022/10/29 07:46:03;;;;;;;;;10.00;10.00;;;;;20.32;68.77;101324.97;5040776;28;45435;-71
2022/10/29 07:48:28;;;;;;;;;11.75;10.50;;;;;20.37;69.08;101324.56;5041437;28;45539;-71
2022/10/29 07:50:57;;;;;;;;;12.25;10.75;;;;;20.20;68.51;101279.19;5055980;28;45526;-71
2022/10/29 07:53:23;;;;;;;;;14.25;12.00;;;;;19.96;67.83;101258.78;5056108;28;45383;-71
2022/10/29 07:55:55;;;;;;;;;10.00;10.00;;;;;20.27;67.58;101316.44;5050633;28;47339;-71
2022/10/29 07:58:21;;;;;;;;;10.25;8.00;;;;;20.33;67.49;101329.38;5053215;28;45385;-71
2022/10/29 08:00:46;;;;;;;;;12.00;10.75;;;;;20.38;67.46;101328.97;5056142;28;45325;-71
2022/10/29 08:03:12;;;;;;;;;9.00;7.50;;;;;20.41;67.35;101326.00;5055831;28;45414;-71
2022/10/29 08:05:39;;;;;;;;;10.25;9.25;;;;;20.35;66.71;101323.81;5054583;28;45697;-71
2022/10/29 08:08:05;;;;;;;;;9.75;8.50;;;;;20.45;67.03;101332.84;5053954;28;45631;-70
2022/10/29 08:10:32;;;;;;;;;11.00;10.00;;;;;20.49;66.51;101328.00;5053953;28;45354;-71
2022/10/29 08:13:00;;;;;;;;;10.25;9.00;;;;;20.56;66.68;101331.00;5053871;28;45490;-70
2022/10/29 08:15:27;;;;;;;;;11.75;11.75;;;;;20.62;66.26;101341.25;5047495;28;46388;-70
2022/10/29 08:17:52;;;;;;;;;12.50;10.50;;;;;20.66;65.74;101338.13;5034317;28;45613;-71
2022/10/29 08:20:19;;;;;;;;;11.50;10.50;;;;;20.69;65.27;101342.44;5040505;28;45503;-71
2022/10/29 08:22:44;;;;;;;;;9.50;9.50;;;;;20.81;65.27;101344.00;5044557;28;46792;-71
2022/10/29 08:25:10;;;;;;;;;10.75;9.00;;;;;20.76;64.63;101321.88;5047318;28;45452;-71
2022/10/29 08:27:36;;;;;;;;;12.00;9.75;;;;;20.97;63.84;101347.97;5046471;28;45421;-71
2022/10/29 08:30:03;;;;;;;;;13.50;12.25;;;;;21.02;64.20;101348.41;5040359;28;45537;-71
2022/10/29 08:32:28;;;;;;;;;8.50;8.25;;;;;21.03;64.26;101338.41;5042293;28;45574;-71
2022/10/29 08:34:55;;;;;;;;;9.25;8.00;;;;;20.78;63.47;101300.03;5042706;28;48978;-71
2022/10/29 08:37:20;;;;;;;;;9.25;8.75;;;;;20.61;64.12;101261.81;5045892;28;45428;-71
2022/10/29 08:39:45;;;;;;;;;9.00;7.50;;;;;21.22;64.06;101334.81;5043893;28;45532;-71
2022/10/29 08:42:29;;;;;;;;;8.75;7.75;;;;;21.25;62.60;101350.78;5042013;28;45468;-71
2022/10/29 08:45:33;;;;;;;;;7.75;7.50;;;;;21.36;63.14;101336.19;5042804;28;45490;-71
2022/10/29 08:48:23;;;;;;;;;12.50;9.00;;;;;21.53;61.83;101346.31;5009245;28;45443;-71
2022/10/29 08:50:57;;;;;;;;;11.50;9.75;;;;;21.57;62.38;101345.00;5008866;28;45422;-71
2022/10/29 08:53:31;;;;;;;;;11.00;8.75;;;;;21.71;61.49;101332.81;5010814;28;45462;-71
2022/10/29 08:55:57;;;;;;;;;12.25;9.75;;;;;21.81;62.15;101336.34;5010442;28;45545;-71
2022/10/29 08:59:00;;;;;;;;;9.25;8.25;;;;;21.94;61.10;101337.84;5010684;28;45571;-71
2022/10/29 09:01:26;;;;;;;;;10.00;8.00;;;;;22.05;60.77;101332.19;5010615;28;45473;-71
2022/10/29 09:03:52;;;;;;;;;8.50;7.50;;;;;22.12;61.02;101333.31;5010497;28;45661;-71
2022/10/29 09:06:36;;;;;;;;;10.00;7.25;;;;;22.12;59.71;101327.00;5010462;28;45521;-71
2022/10/29 09:09:30;;;;;;;;;9.50;8.00;;;;;22.06;60.15;101312.19;5010579;28;45408;-72
2022/10/29 09:12:33;;;;;;;;;10.00;10.00;;;;;22.12;61.35;101322.44;5010288;28;45537;-72
2022/10/29 09:15:32;;;;;;;;;11.50;7.25;;;;;22.07;60.23;101323.91;5010197;28;45590;-72
2022/10/29 09:18:12;;;;;;;;;11.00;8.50;;;;;21.97;59.99;101334.81;5010370;28;45471;-71
2022/10/29 09:20:56;;;;;;;;;6.50;5.75;;;;;21.90;60.51;101318.28;5011223;28;45552;-73
2022/10/29 09:23:56;;;;;;;;;11.25;10.00;;;;;21.87;60.36;101331.31;5057631;28;45421;-71
2022/10/29 09:26:32;;;;;;;;;12.50;9.75;;;;;21.82;60.76;101335.34;5046317;28;45468;-71
2022/10/29 09:29:25;;;;;;;;;6.25;6.25;;;;;21.56;60.36;101282.75;5058298;28;47285;-71
2022/10/29 09:32:02;;;;;;;;;9.50;9.00;;;;;21.86;60.09;101330.44;5059099;28;45606;-71
2022/10/29 09:34:30;;;;;;;;;9.25;9.25;;;;;21.91;60.51;101333.56;5059397;28;45386;-71
2022/10/29 09:36:58;;;;;;;;;12.50;11.00;;;;;21.95;60.42;101332.25;5059264;28;45591;-72
2022/10/29 09:39:37;;;;;;;;;7.00;6.00;;;;;22.01;59.69;101328.94;5058653;28;45550;-71
2022/10/29 09:42:10;;;;;;;;;7.75;6.75;;;;;21.79;59.70;101294.88;5059171;28;45508;-71
2022/10/29 09:44:53;;;;;;;;;6.00;6.00;;;;;21.95;59.53;101310.53;5057732;28;45476;-72
2022/10/29 09:47:31;;;;;;;;;9.75;8.75;;;;;22.03;59.69;101312.50;5055727;28;45468;-71
2022/10/29 09:49:59;;;;;;;;;8.50;8.50;;;;;;;;5058969;28;46107;-71
2022/10/29 09:52:46;;;;;;;;;7.25;6.00;;;;;22.34;59.10;101331.16;5058206;28;45515;-72
2022/10/29 09:55:27;;;;;;;;;10.25;7.00;;;;;22.34;58.86;101299.44;5046702;28;45433;-71
2022/10/29 09:57:55;;;;;;;;;13.00;9.00;;;;;22.40;58.52;101297.94;5056043;28;45608;-71
2022/10/29 10:00:38;;;;;;;;;10.25;9.00;;;;;22.46;58.50;101313.66;5056485;28;47451;-72
2022/10/29 10:03:13;;;;;;;;;11.25;7.25;;;;;22.53;57.98;101322.03;5058884;28;45427;-72
2022/10/29 10:06:04;;;;;;;;;11.00;11.00;;;;;22.59;58.44;101315.13;5058763;28;45789;-71
2022/10/29 10:08:31;;;;;;;;;10.75;10.00;;;;;22.57;58.47;101304.41;5059195;28;45687;-72
2022/10/29 10:11:06;;;;;;;;;9.00;7.50;;;;;22.71;57.79;101329.34;5053285;28;46463;-71
2022/10/29 10:13:49;;;;;;;;;11.50;9.25;;;;;22.66;57.44;101324.34;5042338;28;45358;-72
2022/10/29 10:16:23;;;;;;;;;10.50;9.00;;;;;22.72;57.82;101318.28;5039139;28;45363;-72
2022/10/29 10:18:49;;;;;;;;;12.75;10.00;;;;;22.82;58.78;101319.06;5039629;28;45716;-72
2022/10/29 10:21:29;;;;;;;;;7.75;7.25;;;;;22.67;57.34;101280.72;5041202;28;46157;-72
2022/10/29 10:23:58;;;;;;;;;12.25;11.50;;;;;22.90;56.67;101310.09;5039904;28;45497;-72
2022/10/29 10:26:26;;;;;;;;;7.50;7.25;;;;;23.04;57.48;101311.41;5040930;28;45502;-71
2022/10/29 10:29:12;;;;;;;;;10.50;7.50;;;;;23.14;56.27;101300.44;5040321;28;45741;-71
2022/10/29 10:31:39;;;;;;;;;9.75;8.50;;;;;23.30;56.38;101305.16;5038952;28;47142;-72
2022/10/29 10:34:25;;;;;;;;;9.00;7.75;;;;;23.51;55.99;101307.44;5036831;28;45474;-71
2022/10/29 10:37:06;;;;;;;;;12.00;7.25;;;;;23.63;55.19;101308.03;5035592;28;45382;-71
2022/10/29 10:39:36;;;;;;;;;3.75;3.75;;;;;23.73;54.34;101297.00;5035783;28;45386;-71
2022/10/29 10:42:05;;;;;;;;;9.00;8.00;;;;;23.84;53.96;101293.97;5034259;28;45623;-71
2022/10/29 10:44:31;;;;;;;;;11.25;7.75;;;;;24.04;53.78;101291.88;5043378;28;45701;-71
2022/10/29 10:47:03;;;;;;;;;7.75;7.25;;;;;24.25;54.80;101288.66;5054107;28;45425;-71
2022/10/29 10:49:33;;;;;;;;;9.25;9.25;;;;;24.46;52.36;101282.72;5055013;28;45706;-71
2022/10/29 10:52:03;;;;;;;;;7.25;7.25;;;;;24.24;51.88;101216.09;5053986;28;46854;-71
2022/10/29 10:54:40;;;;;;;;;9.00;7.00;;;;;24.69;49.81;101276.63;5053794;28;45363;-71
2022/10/29 10:57:09;;;;;;;;;8.25;7.25;;;;;24.74;50.61;101276.97;5047544;28;45598;-72
2022/10/29 10:59:59;;;;;;;;;6.75;6.75;;;;;24.72;49.78;101267.25;5051286;28;45814;-71
2022/10/29 11:02:49;;;;;;;;;5.75;4.75;;;;;24.81;49.96;101271.69;5054488;28;46307;-71
2022/10/29 11:05:20;;;;;;;;;7.00;5.25;;;;;24.91;50.44;101266.03;5055000;28;45502;-71
2022/10/29 11:07:57;;;;;;;;;11.25;9.50;;;;;24.98;50.23;101258.84;5055005;28;45619;-70
2022/10/29 11:10:32;;;;;;;;;8.50;5.75;;;;;25.01;49.00;101267.56;5052772;28;45540;-71
2022/10/29 11:13:02;;;;;;;;;4.50;4.50;;;;;25.07;49.94;101266.00;5068897;28;45425;-70
2022/10/29 11:15:37;;;;;;;;;11.50;8.00;;;;;25.07;48.53;101278.81;5040799;28;45630;-70
2022/10/29 11:18:15;;;;;;;;;9.75;8.75;;;;;25.05;48.45;101280.84;5034530;28;45417;-71
2022/10/29 11:20:47;;;;;;;;;6.75;6.75;;;;;25.06;49.45;101283.38;5034720;28;45465;-70
2022/10/29 11:23:32;;;;;;;;;7.75;7.00;;;;;24.85;50.11;101249.31;5034319;28;45786;-71
2022/10/29 11:26:13;;;;;;;;;6.00;6.00;;;;;25.17;48.50;101283.03;5034154;28;45472;-71
2022/10/29 11:28:57;;;;;;;;;6.75;5.00;;;;;25.29;49.94;101277.19;5033445;28;45461;-70